createdAt,value
2023-01-27T00:00:12.046Z,4.91
2023-01-27T00:00:52.461Z,4.96
2023-01-27T00:01:25.198Z,4.96
2023-01-27T00:01:57.899Z,4.92
2023-01-27T00:02:51.505Z,4.88
2023-01-27T00:03:24.300Z,4.93
2023-01-27T00:03:57.073Z,4.99
2023-01-27T00:04:48.335Z,4.99
2023-01-27T00:05:20.858Z,5.02
2023-01-27T00:05:53.430Z,5.07
2023-01-27T00:06:26.419Z,5.01
2023-01-27T00:06:58.937Z,4.98
2023-01-27T00:07:32.907Z,4.93
2023-01-27T00:08:05.551Z,4.95
2023-01-27T00:08:56.392Z,4.95
2023-01-27T00:09:28.959Z,4.91
2023-01-27T00:10:01.572Z,4.95
2023-01-27T00:11:23.203Z,4.92
2023-01-27T00:12:14.572Z,4.88
2023-01-27T00:13:06.128Z,4.93
2023-01-27T00:13:39.814Z,4.96
2023-01-27T00:14:12.487Z,4.81
2023-01-27T00:14:45.671Z,4.89
2023-01-27T00:15:18.412Z,4.97
2023-01-27T00:16:09.810Z,5.03
2023-01-27T00:16:42.339Z,4.93
2023-01-27T00:17:15.154Z,4.92
2023-01-27T00:18:06.897Z,4.89
2023-01-27T00:18:39.642Z,4.90
2023-01-27T00:19:12.373Z,4.87
2023-01-27T00:20:04.108Z,4.92
2023-01-27T00:20:54.704Z,4.88
2023-01-27T00:21:45.879Z,4.93
2023-01-27T00:22:36.978Z,4.88
2023-01-27T00:23:39.850Z,4.95
2023-01-27T00:24:37.325Z,4.83
2023-01-27T00:25:09.875Z,4.82
2023-01-27T00:25:42.435Z,4.82
2023-01-27T00:26:15.837Z,4.85
2023-01-27T00:26:48.974Z,4.81
2023-01-27T00:27:21.548Z,4.87
2023-01-27T00:27:54.091Z,4.93
2023-01-27T00:28:45.228Z,4.93
2023-01-27T00:29:19.702Z,4.92
2023-01-27T00:29:53.908Z,4.96
2023-01-27T00:30:26.642Z,4.94
2023-01-27T00:30:59.792Z,5.00
2023-01-27T00:31:51.061Z,4.98
2023-01-27T00:33:16.932Z,5.06
2023-01-27T00:33:53.890Z,4.87
2023-01-27T00:34:57.945Z,4.90
2023-01-27T00:35:30.529Z,4.97
2023-01-27T00:36:04.236Z,4.94
2023-01-27T00:36:40.950Z,4.94
2023-01-27T00:37:13.784Z,4.91
2023-01-27T00:37:46.612Z,4.88
2023-01-27T00:37:59.622Z,4.95
2023-01-27T00:38:51.891Z,4.90
2023-01-27T00:39:24.425Z,4.97
2023-01-27T00:39:56.977Z,4.99
2023-01-27T00:40:29.486Z,4.96
2023-01-27T00:41:20.329Z,5.01
2023-01-27T00:42:11.539Z,4.99
2023-01-27T00:42:44.385Z,4.99
2023-01-27T00:43:16.938Z,4.94
2023-01-27T00:43:50.873Z,4.82
2023-01-27T00:44:24.092Z,4.70
2023-01-27T00:45:15.325Z,4.73
2023-01-27T00:46:06.362Z,4.80
2023-01-27T00:46:57.172Z,5.00
2023-01-27T00:47:30.308Z,4.94
2023-01-27T00:48:02.841Z,4.93
2023-01-27T00:48:36.100Z,4.96
2023-01-27T00:49:08.884Z,4.96
2023-01-27T00:49:41.446Z,4.99
2023-01-27T00:50:37.977Z,5.02
2023-01-27T00:51:11.142Z,4.91
2023-01-27T00:51:43.801Z,4.90
2023-01-27T00:52:17.317Z,4.94
2023-01-27T00:53:08.520Z,4.97
2023-01-27T00:54:03.023Z,5.01
2023-01-27T00:54:35.656Z,4.87
2023-01-27T00:55:08.380Z,4.90
2023-01-27T00:55:41.883Z,4.87
2023-01-27T00:56:14.448Z,4.85
2023-01-27T00:57:06.110Z,4.87
2023-01-27T00:57:38.740Z,4.86
2023-01-27T00:58:11.334Z,4.87
2023-01-27T00:58:45.801Z,4.89
2023-01-27T00:59:18.651Z,4.90
2023-01-27T00:59:51.612Z,4.91
2023-01-27T01:00:05.593Z,4.92
2023-01-27T01:00:56.692Z,4.89
2023-01-27T01:01:48.287Z,4.96
2023-01-27T01:02:21.028Z,4.99
2023-01-27T01:02:53.708Z,4.93
2023-01-27T01:03:27.120Z,4.95
2023-01-27T01:04:18.203Z,4.94
2023-01-27T01:04:50.811Z,4.83
2023-01-27T01:05:23.359Z,4.85
2023-01-27T01:05:55.916Z,4.85
2023-01-27T01:06:47.334Z,4.91
2023-01-27T01:07:21.860Z,4.89
2023-01-27T01:07:54.414Z,4.89
2023-01-27T01:08:26.994Z,4.86
2023-01-27T01:09:18.331Z,4.87
2023-01-27T01:09:50.911Z,4.89
2023-01-27T01:10:23.695Z,4.88
2023-01-27T01:11:15.015Z,4.87
2023-01-27T01:12:06.156Z,4.98
2023-01-27T01:12:57.106Z,5.02
2023-01-27T01:13:48.595Z,4.95
2023-01-27T01:14:21.381Z,4.91
2023-01-27T01:14:53.933Z,4.85
2023-01-27T01:15:44.714Z,4.79
2023-01-27T01:16:19.020Z,4.82
2023-01-27T01:16:36.147Z,4.88
2023-01-27T01:17:08.711Z,4.88
2023-01-27T01:17:41.238Z,4.91
2023-01-27T01:18:32.723Z,4.99
2023-01-27T01:19:05.258Z,5.00
2023-01-27T01:19:37.845Z,4.89
2023-01-27T01:20:11.856Z,4.91
2023-01-27T01:20:44.974Z,4.93
2023-01-27T01:21:17.555Z,5.02
2023-01-27T01:21:50.119Z,5.03
2023-01-27T01:22:22.664Z,4.99
2023-01-27T01:22:55.399Z,4.97
2023-01-27T01:23:27.947Z,4.97
2023-01-27T01:24:00.552Z,4.97
2023-01-27T01:24:33.271Z,4.89
2023-01-27T01:25:07.930Z,4.85
2023-01-27T01:25:40.596Z,4.92
2023-01-27T01:26:15.150Z,4.84
2023-01-27T01:26:47.717Z,4.85
2023-01-27T01:27:20.296Z,4.79
2023-01-27T01:27:33.559Z,4.86
2023-01-27T01:27:46.383Z,4.90
2023-01-27T01:28:40.019Z,4.89
2023-01-27T01:29:12.560Z,4.85
2023-01-27T01:29:45.105Z,4.81
2023-01-27T01:30:18.202Z,4.76
2023-01-27T01:31:10.570Z,4.76
2023-01-27T01:31:43.961Z,4.78
2023-01-27T01:32:16.681Z,4.82
2023-01-27T01:33:08.274Z,4.84
2023-01-27T01:33:42.677Z,4.78
2023-01-27T01:34:15.222Z,4.78
2023-01-27T01:34:49.774Z,4.82
2023-01-27T01:35:22.393Z,4.93
2023-01-27T01:35:54.952Z,4.80
2023-01-27T01:36:27.684Z,4.69
2023-01-27T01:37:00.248Z,4.66
2023-01-27T01:37:32.797Z,4.67
2023-01-27T01:38:05.471Z,4.69
2023-01-27T01:38:38.052Z,4.76
2023-01-27T01:39:10.576Z,4.81
2023-01-27T01:39:43.133Z,4.87
2023-01-27T01:40:34.301Z,4.83
2023-01-27T01:41:07.609Z,4.82
2023-01-27T01:41:40.489Z,4.87
2023-01-27T01:42:50.820Z,4.81
2023-01-27T01:43:55.753Z,4.82
2023-01-27T01:44:30.046Z,4.83
2023-01-27T01:45:39.691Z,4.82
2023-01-27T01:46:12.732Z,4.77
2023-01-27T01:47:04.467Z,4.69
2023-01-27T01:47:55.518Z,4.70
2023-01-27T01:48:54.358Z,4.60
2023-01-27T01:49:46.179Z,4.68
2023-01-27T01:50:18.715Z,4.77
2023-01-27T01:51:11.313Z,4.71
2023-01-27T01:51:45.474Z,4.60
2023-01-27T01:52:19.442Z,4.62
2023-01-27T01:52:54.428Z,4.59
2023-01-27T01:53:31.582Z,4.54
2023-01-27T01:54:14.272Z,4.55
2023-01-27T01:55:06.994Z,4.52
2023-01-27T01:55:58.911Z,4.63
2023-01-27T01:56:34.877Z,4.66
2023-01-27T01:57:29.606Z,4.75
2023-01-27T01:58:02.752Z,4.72
2023-01-27T01:58:55.984Z,4.65
2023-01-27T01:59:15.096Z,4.68
2023-01-27T01:59:50.559Z,4.70
2023-01-27T02:00:23.246Z,4.76
2023-01-27T02:01:15.046Z,4.77
2023-01-27T02:02:07.213Z,4.72
2023-01-27T02:02:58.247Z,4.78
2023-01-27T02:04:05.037Z,4.73
2023-01-27T02:04:58.863Z,4.73
2023-01-27T02:05:32.941Z,4.70
2023-01-27T02:06:05.696Z,4.84
2023-01-27T02:06:40.958Z,4.77
2023-01-27T02:07:49.784Z,4.76
2023-01-27T02:08:44.580Z,4.64
2023-01-27T02:09:35.392Z,4.69
2023-01-27T02:10:07.949Z,4.70
2023-01-27T02:10:40.719Z,4.71
2023-01-27T02:11:13.270Z,4.66
2023-01-27T02:11:45.897Z,4.62
2023-01-27T02:12:18.428Z,4.60
2023-01-27T02:12:50.946Z,4.63
2023-01-27T02:13:23.713Z,4.71
2023-01-27T02:13:56.230Z,4.71
2023-01-27T02:14:28.859Z,4.67
2023-01-27T02:15:01.766Z,4.73
2023-01-27T02:15:53.002Z,4.66
2023-01-27T02:16:25.579Z,4.65
2023-01-27T02:16:59.067Z,4.71
2023-01-27T02:17:12.057Z,4.67
2023-01-27T02:18:03.553Z,4.63
2023-01-27T02:18:36.074Z,4.63
2023-01-27T02:19:32.341Z,4.62
2023-01-27T02:20:15.763Z,4.68
2023-01-27T02:20:49.888Z,4.69
2023-01-27T02:21:22.440Z,4.66
2023-01-27T02:21:55.582Z,4.74
2023-01-27T02:22:36.877Z,4.74
2023-01-27T02:23:55.876Z,4.66
2023-01-27T02:24:34.042Z,4.84
2023-01-27T02:25:11.997Z,4.76
2023-01-27T02:25:57.029Z,4.69
2023-01-27T02:26:34.898Z,4.65
2023-01-27T02:27:46.643Z,4.72
2023-01-27T02:28:19.381Z,4.65
2023-01-27T02:28:56.966Z,4.62
2023-01-27T02:29:29.721Z,4.64
2023-01-27T02:30:02.562Z,4.66
2023-01-27T02:30:37.205Z,4.68
2023-01-27T02:31:28.378Z,4.69
2023-01-27T02:32:00.965Z,4.78
2023-01-27T02:32:51.954Z,4.79
2023-01-27T02:33:24.572Z,4.61
2023-01-27T02:34:04.818Z,4.65
2023-01-27T02:34:56.051Z,4.71
2023-01-27T02:35:38.397Z,4.73
2023-01-27T02:36:30.654Z,4.63
2023-01-27T02:37:21.948Z,4.65
2023-01-27T02:37:54.776Z,4.68
2023-01-27T02:38:34.374Z,4.69
2023-01-27T02:39:40.804Z,4.60
2023-01-27T02:40:13.521Z,4.64
2023-01-27T02:41:24.619Z,4.71
2023-01-27T02:42:16.512Z,4.63
2023-01-27T02:42:29.247Z,4.61
2023-01-27T02:43:01.984Z,4.62
2023-01-27T02:43:14.832Z,4.63
2023-01-27T02:43:48.128Z,4.61
2023-01-27T02:44:20.762Z,4.60
2023-01-27T02:44:53.355Z,4.58
2023-01-27T02:45:26.362Z,4.61
2023-01-27T02:46:17.662Z,4.61
2023-01-27T02:46:50.190Z,4.53
2023-01-27T02:47:22.757Z,4.57
2023-01-27T02:48:16.991Z,4.54
2023-01-27T02:48:49.582Z,4.60
2023-01-27T02:49:40.475Z,4.55
2023-01-27T02:50:13.052Z,4.55
2023-01-27T02:50:45.624Z,4.51
2023-01-27T02:51:18.220Z,4.54
2023-01-27T02:51:50.976Z,4.54
2023-01-27T02:52:23.738Z,4.50
2023-01-27T02:52:56.493Z,4.53
2023-01-27T02:53:29.224Z,4.53
2023-01-27T02:54:02.002Z,4.52
2023-01-27T02:54:34.528Z,4.50
2023-01-27T02:55:07.612Z,4.44
2023-01-27T02:55:59.409Z,4.45
2023-01-27T02:56:32.338Z,4.43
2023-01-27T02:57:05.092Z,4.37
2023-01-27T02:57:37.958Z,4.37
2023-01-27T02:58:10.480Z,4.43
2023-01-27T02:59:01.710Z,4.46
2023-01-27T02:59:34.243Z,4.48
2023-01-27T03:00:09.701Z,4.44
2023-01-27T03:01:01.352Z,4.49
2023-01-27T03:01:33.948Z,4.45
2023-01-27T03:02:30.435Z,4.45
2023-01-27T03:03:02.898Z,4.40
2023-01-27T03:03:35.657Z,4.44
2023-01-27T03:04:27.959Z,4.43
2023-01-27T03:05:01.006Z,4.41
2023-01-27T03:05:51.797Z,4.52
2023-01-27T03:06:24.452Z,4.52
2023-01-27T03:06:57.024Z,4.57
2023-01-27T03:07:29.551Z,4.61
2023-01-27T03:08:02.118Z,4.61
2023-01-27T03:08:34.672Z,4.62
2023-01-27T03:09:25.694Z,4.64
2023-01-27T03:09:58.281Z,4.57
2023-01-27T03:10:30.829Z,4.53
2023-01-27T03:11:03.358Z,4.55
2023-01-27T03:11:54.725Z,4.58
2023-01-27T03:12:46.219Z,4.59
2023-01-27T03:13:37.414Z,4.59
2023-01-27T03:14:09.938Z,4.60
2023-01-27T03:15:00.935Z,4.55
2023-01-27T03:15:52.328Z,4.51
2023-01-27T03:16:43.838Z,4.41
2023-01-27T03:17:35.222Z,4.40
2023-01-27T03:18:16.288Z,4.43
2023-01-27T03:18:50.236Z,4.37
2023-01-27T03:19:23.498Z,4.37
2023-01-27T03:19:56.220Z,4.46
2023-01-27T03:20:29.069Z,4.50
2023-01-27T03:21:03.078Z,4.46
2023-01-27T03:21:54.538Z,4.40
2023-01-27T03:22:27.396Z,4.40
2023-01-27T03:23:00.125Z,4.37
2023-01-27T03:23:36.637Z,4.41
2023-01-27T03:24:09.450Z,4.40
2023-01-27T03:24:42.122Z,4.38
2023-01-27T03:25:16.361Z,4.39
2023-01-27T03:25:48.989Z,4.36
2023-01-27T03:26:21.749Z,4.43
2023-01-27T03:26:54.502Z,4.43
2023-01-27T03:27:27.235Z,4.41
2023-01-27T03:28:00.170Z,4.46
2023-01-27T03:28:33.000Z,4.43
2023-01-27T03:29:24.579Z,4.50
2023-01-27T03:30:15.580Z,4.56
2023-01-27T03:30:48.220Z,4.44
2023-01-27T03:31:21.016Z,4.40
2023-01-27T03:31:53.783Z,4.34
2023-01-27T03:32:27.872Z,4.41
2023-01-27T03:33:04.044Z,4.41
2023-01-27T03:33:36.751Z,4.33
2023-01-27T03:34:09.506Z,4.40
2023-01-27T03:34:42.269Z,4.38
2023-01-27T03:35:15.798Z,4.37
2023-01-27T03:35:49.482Z,4.37
2023-01-27T03:36:42.870Z,4.39
2023-01-27T03:37:35.909Z,4.39
2023-01-27T03:38:45.879Z,4.54
2023-01-27T03:39:55.877Z,4.46
2023-01-27T03:41:05.797Z,4.36
2023-01-27T03:42:15.903Z,4.42
2023-01-27T03:43:26.127Z,4.38
2023-01-27T03:44:17.501Z,4.41
2023-01-27T03:45:28.384Z,4.48
2023-01-27T03:46:20.697Z,4.46
2023-01-27T03:47:12.257Z,4.41
2023-01-27T03:48:03.299Z,4.40
2023-01-27T03:48:36.410Z,4.42
2023-01-27T03:49:09.133Z,4.38
2023-01-27T03:49:41.893Z,4.38
2023-01-27T03:50:43.279Z,4.32
2023-01-27T03:51:16.136Z,4.35
2023-01-27T03:52:07.728Z,4.28
2023-01-27T03:52:41.501Z,4.37
2023-01-27T03:53:14.261Z,4.37
2023-01-27T03:53:47.061Z,4.40
2023-01-27T03:54:20.052Z,4.39
2023-01-27T03:54:52.773Z,4.45
2023-01-27T03:55:25.495Z,4.51
2023-01-27T03:55:58.216Z,4.51
2023-01-27T03:56:49.223Z,4.47
2023-01-27T03:57:21.965Z,4.47
2023-01-27T03:57:56.736Z,4.37
2023-01-27T03:59:01.420Z,4.43
2023-01-27T03:59:34.323Z,4.39
2023-01-27T04:00:25.996Z,4.41
2023-01-27T04:01:04.207Z,4.41
2023-01-27T04:01:37.015Z,4.43
2023-01-27T04:02:28.432Z,4.50
2023-01-27T04:03:39.308Z,4.46
2023-01-27T04:04:30.477Z,4.48
2023-01-27T04:05:21.823Z,4.39
2023-01-27T04:06:32.420Z,4.44
2023-01-27T04:07:06.848Z,4.45
2023-01-27T04:07:41.333Z,4.38
2023-01-27T04:08:32.670Z,4.34
2023-01-27T04:09:07.505Z,4.37
2023-01-27T04:09:59.998Z,4.40
2023-01-27T04:10:32.528Z,4.38
2023-01-27T04:11:24.295Z,4.36
2023-01-27T04:12:00.697Z,4.39
2023-01-27T04:12:33.350Z,4.42
2023-01-27T04:13:06.103Z,4.36
2023-01-27T04:14:00.947Z,4.38
2023-01-27T04:14:52.710Z,4.35
2023-01-27T04:15:25.284Z,4.33
2023-01-27T04:15:57.911Z,4.45
2023-01-27T04:16:31.762Z,4.36
2023-01-27T04:17:05.514Z,4.34
2023-01-27T04:17:41.736Z,4.38
2023-01-27T04:18:14.468Z,4.37
2023-01-27T04:19:07.299Z,4.41
2023-01-27T04:19:40.009Z,4.46
2023-01-27T04:20:12.945Z,4.41
2023-01-27T04:21:04.451Z,4.47
2023-01-27T04:21:37.090Z,4.52
2023-01-27T04:22:10.331Z,4.45
2023-01-27T04:23:02.203Z,4.50
2023-01-27T04:23:34.954Z,4.50
2023-01-27T04:24:17.321Z,4.44
2023-01-27T04:24:50.301Z,4.47
2023-01-27T04:25:22.877Z,4.42
2023-01-27T04:25:56.673Z,4.36
2023-01-27T04:26:51.794Z,4.34
2023-01-27T04:27:24.378Z,4.28
2023-01-27T04:27:57.142Z,4.29
2023-01-27T04:28:43.744Z,4.31
2023-01-27T04:29:04.126Z,4.32
2023-01-27T04:29:39.292Z,4.44
2023-01-27T04:30:12.056Z,4.43
2023-01-27T04:30:44.672Z,4.41
2023-01-27T04:31:17.714Z,4.39
2023-01-27T04:31:50.721Z,4.36
2023-01-27T04:32:06.055Z,4.31
2023-01-27T04:32:38.840Z,4.31
2023-01-27T04:33:19.648Z,4.42
2023-01-27T04:33:49.637Z,4.46
2023-01-27T04:34:41.459Z,4.39
2023-01-27T04:35:14.488Z,4.37
2023-01-27T04:35:47.001Z,4.40
2023-01-27T04:36:38.271Z,4.41
2023-01-27T04:37:11.073Z,4.33
2023-01-27T04:37:43.855Z,4.35
2023-01-27T04:38:16.938Z,4.33
2023-01-27T04:38:49.735Z,4.38
2023-01-27T04:39:45.763Z,4.37
2023-01-27T04:40:19.634Z,4.35
2023-01-27T04:40:52.369Z,4.31
2023-01-27T04:41:44.911Z,4.34
2023-01-27T04:42:17.660Z,4.27
2023-01-27T04:42:52.754Z,4.28
2023-01-27T04:43:25.627Z,4.34
2023-01-27T04:43:38.253Z,4.30
2023-01-27T04:44:10.922Z,4.33
2023-01-27T04:44:43.502Z,4.41
2023-01-27T04:45:35.202Z,4.50
2023-01-27T04:46:07.770Z,4.43
2023-01-27T04:46:40.493Z,4.43
2023-01-27T04:47:32.315Z,4.38
2023-01-27T04:48:06.486Z,4.38
2023-01-27T04:48:39.037Z,4.43
2023-01-27T04:49:11.666Z,4.43
2023-01-27T04:49:44.253Z,4.39
2023-01-27T04:50:17.008Z,4.41
2023-01-27T04:50:49.773Z,4.51
2023-01-27T04:51:41.348Z,4.43
2023-01-27T04:52:32.496Z,4.35
2023-01-27T04:53:05.067Z,4.40
2023-01-27T04:53:37.854Z,4.45
2023-01-27T04:54:10.603Z,4.41
2023-01-27T04:55:02.036Z,4.35
2023-01-27T04:55:53.116Z,4.32
2023-01-27T04:56:30.168Z,4.30
2023-01-27T04:57:04.937Z,4.26
2023-01-27T04:57:37.677Z,4.36
2023-01-27T04:58:11.108Z,4.28
2023-01-27T04:58:43.850Z,4.34
2023-01-27T04:59:16.580Z,4.43
2023-01-27T04:59:50.157Z,4.39
2023-01-27T05:00:46.571Z,4.36
2023-01-27T05:01:38.765Z,4.34
2023-01-27T05:02:30.138Z,4.30
2023-01-27T05:03:21.162Z,4.28
2023-01-27T05:03:53.984Z,4.23
2023-01-27T05:04:28.711Z,4.22
2023-01-27T05:05:04.682Z,4.23
2023-01-27T05:05:38.119Z,4.26
2023-01-27T05:06:11.324Z,4.27
2023-01-27T05:06:43.895Z,4.26
2023-01-27T05:07:17.247Z,4.34
2023-01-27T05:07:49.776Z,4.28
2023-01-27T05:08:41.057Z,4.27
2023-01-27T05:09:14.726Z,4.28
2023-01-27T05:09:47.467Z,4.33
2023-01-27T05:10:38.928Z,4.32
2023-01-27T05:11:30.716Z,4.29
2023-01-27T05:12:22.066Z,4.33
2023-01-27T05:13:13.839Z,4.37
2023-01-27T05:14:10.323Z,4.27
2023-01-27T05:14:42.897Z,4.27
2023-01-27T05:15:15.728Z,4.23
2023-01-27T05:15:48.821Z,4.28
2023-01-27T05:16:23.619Z,4.33
2023-01-27T05:16:56.752Z,4.36
2023-01-27T05:17:32.768Z,4.37
2023-01-27T05:18:09.623Z,4.38
2023-01-27T05:18:42.857Z,4.46
2023-01-27T05:19:15.420Z,4.40
2023-01-27T05:20:07.539Z,4.42
2023-01-27T05:20:40.177Z,4.37
2023-01-27T05:21:16.489Z,4.37
2023-01-27T05:21:49.060Z,4.30
2023-01-27T05:22:42.436Z,4.30
2023-01-27T05:23:33.810Z,4.38
2023-01-27T05:24:06.576Z,4.39
2023-01-27T05:24:59.611Z,4.37
2023-01-27T05:25:32.152Z,4.33
2023-01-27T05:26:08.005Z,4.39
2023-01-27T05:26:40.947Z,4.43
2023-01-27T05:27:13.505Z,4.38
2023-01-27T05:27:46.068Z,4.34
2023-01-27T05:28:18.616Z,4.30
2023-01-27T05:28:51.357Z,4.33
2023-01-27T05:29:23.901Z,4.33
2023-01-27T05:29:57.156Z,4.29
2023-01-27T05:30:48.297Z,4.29
2023-01-27T05:31:39.569Z,4.27
2023-01-27T05:32:13.993Z,4.26
2023-01-27T05:32:47.226Z,4.25
2023-01-27T05:33:19.947Z,4.23
2023-01-27T05:34:11.558Z,4.34
2023-01-27T05:34:44.257Z,4.27
2023-01-27T05:34:57.333Z,4.26
2023-01-27T05:35:32.522Z,4.29
2023-01-27T05:36:05.980Z,4.30
2023-01-27T05:36:57.181Z,4.32
2023-01-27T05:37:29.912Z,4.35
2023-01-27T05:38:02.468Z,4.30
2023-01-27T05:38:35.105Z,4.26
2023-01-27T05:39:10.483Z,4.19
2023-01-27T05:40:01.882Z,4.25
2023-01-27T05:41:03.824Z,4.18
2023-01-27T05:41:36.595Z,4.31
2023-01-27T05:42:09.467Z,4.34
2023-01-27T05:43:00.466Z,4.25
2023-01-27T05:43:34.538Z,4.29
2023-01-27T05:44:25.462Z,4.28
2023-01-27T05:45:17.077Z,4.22
2023-01-27T05:45:51.587Z,4.20
2023-01-27T05:46:25.715Z,4.10
2023-01-27T05:47:00.237Z,4.15
2023-01-27T05:47:32.786Z,4.22
2023-01-27T05:48:05.742Z,4.22
2023-01-27T05:48:39.399Z,4.26
2023-01-27T05:49:30.109Z,4.30
2023-01-27T05:50:21.376Z,4.34
2023-01-27T05:50:55.656Z,4.21
2023-01-27T05:51:35.531Z,4.24
2023-01-27T05:52:08.270Z,4.23
2023-01-27T05:52:40.940Z,4.25
2023-01-27T05:52:53.756Z,4.21
2023-01-27T05:53:26.435Z,4.20
2023-01-27T05:53:58.985Z,4.15
2023-01-27T05:54:31.727Z,4.15
2023-01-27T05:55:04.908Z,4.18
2023-01-27T05:55:37.737Z,4.16
2023-01-27T05:56:11.487Z,4.17
2023-01-27T05:56:44.154Z,4.24
2023-01-27T05:57:16.935Z,4.21
2023-01-27T05:57:49.786Z,4.20
2023-01-27T05:58:22.784Z,4.23
2023-01-27T05:58:56.083Z,4.30
2023-01-27T05:59:28.808Z,4.27
2023-01-27T06:00:01.581Z,4.29
2023-01-27T06:00:53.040Z,4.28
2023-01-27T06:01:50.022Z,4.26
2023-01-27T06:02:23.576Z,4.29
2023-01-27T06:03:14.984Z,4.27
2023-01-27T06:03:48.002Z,4.18
2023-01-27T06:04:20.716Z,4.24
2023-01-27T06:04:53.566Z,4.20
2023-01-27T06:05:26.386Z,4.21
2023-01-27T06:05:59.273Z,4.19
2023-01-27T06:06:33.062Z,4.15
2023-01-27T06:07:23.905Z,4.18
2023-01-27T06:08:15.405Z,4.29
2023-01-27T06:08:48.370Z,4.24
2023-01-27T06:09:40.036Z,4.23
2023-01-27T06:10:32.059Z,4.29
2023-01-27T06:11:06.042Z,4.28
2023-01-27T06:11:38.583Z,4.24
2023-01-27T06:12:11.359Z,4.25
2023-01-27T06:12:44.100Z,4.21
2023-01-27T06:13:16.903Z,4.19
2023-01-27T06:14:08.122Z,4.21
2023-01-27T06:14:42.822Z,4.21
2023-01-27T06:15:15.778Z,4.27
2023-01-27T06:15:48.567Z,4.20
2023-01-27T06:16:21.751Z,4.19
2023-01-27T06:16:54.906Z,4.14
2023-01-27T06:17:27.703Z,4.19
2023-01-27T06:18:19.405Z,4.17
2023-01-27T06:18:52.201Z,4.20
2023-01-27T06:19:24.948Z,4.23
2023-01-27T06:19:57.712Z,4.21
2023-01-27T06:20:33.099Z,4.24
2023-01-27T06:21:07.012Z,4.24
2023-01-27T06:21:39.630Z,4.21
2023-01-27T06:22:33.864Z,4.25
2023-01-27T06:23:07.819Z,4.17
2023-01-27T06:23:58.801Z,4.27
2023-01-27T06:24:31.446Z,4.23
2023-01-27T06:25:03.797Z,4.14
2023-01-27T06:25:47.836Z,4.30
2023-01-27T06:26:20.435Z,4.26
2023-01-27T06:27:11.757Z,4.17
2023-01-27T06:27:44.344Z,4.17
2023-01-27T06:28:28.563Z,4.15
2023-01-27T06:28:50.848Z,4.11
2023-01-27T06:29:23.411Z,4.19
2023-01-27T06:29:55.953Z,4.11
2023-01-27T06:30:28.608Z,4.14
2023-01-27T06:31:08.554Z,4.20
2023-01-27T06:31:41.093Z,4.17
2023-01-27T06:32:13.888Z,4.20
2023-01-27T06:32:27.697Z,4.24
2023-01-27T06:33:00.242Z,4.25
2023-01-27T06:33:52.319Z,4.15
2023-01-27T06:34:43.328Z,4.17
2023-01-27T06:35:15.951Z,4.22
2023-01-27T06:35:48.462Z,4.18
2023-01-27T06:36:21.777Z,4.14
2023-01-27T06:36:34.685Z,4.19
2023-01-27T06:37:07.485Z,4.18
2023-01-27T06:37:59.009Z,4.12
2023-01-27T06:38:31.830Z,4.19
2023-01-27T06:39:04.525Z,4.17
2023-01-27T06:39:37.265Z,4.16
2023-01-27T06:40:11.594Z,4.14
2023-01-27T06:41:02.480Z,4.17
2023-01-27T06:41:59.299Z,4.24
2023-01-27T06:42:52.378Z,4.18
2023-01-27T06:43:26.873Z,4.16
2023-01-27T06:44:00.302Z,4.15
2023-01-27T06:44:32.924Z,4.06
2023-01-27T06:45:05.761Z,4.07
2023-01-27T06:46:00.088Z,4.05
2023-01-27T06:46:32.645Z,4.21
2023-01-27T06:47:05.183Z,4.16
2023-01-27T06:47:40.163Z,4.20
2023-01-27T06:48:12.906Z,4.15
2023-01-27T06:49:03.776Z,4.15
2023-01-27T06:49:36.493Z,4.13
2023-01-27T06:50:10.353Z,4.18
2023-01-27T06:50:42.903Z,4.06
2023-01-27T06:51:15.515Z,4.07
2023-01-27T06:51:48.239Z,4.07
2023-01-27T06:52:21.010Z,4.01
2023-01-27T06:52:53.942Z,4.12
2023-01-27T06:53:26.311Z,4.16
2023-01-27T06:53:58.866Z,4.15
2023-01-27T06:54:31.402Z,4.11
2023-01-27T06:55:04.486Z,4.19
2023-01-27T06:55:59.344Z,4.10
2023-01-27T06:56:51.191Z,4.10
2023-01-27T06:57:42.656Z,4.07
2023-01-27T06:58:15.375Z,4.04
2023-01-27T06:58:47.910Z,4.08
2023-01-27T06:59:20.793Z,4.06
2023-01-27T06:59:53.592Z,4.15
2023-01-27T07:00:27.431Z,4.10
2023-01-27T07:01:00.153Z,4.09
2023-01-27T07:01:53.754Z,4.03
2023-01-27T07:02:28.389Z,4.02
2023-01-27T07:03:25.065Z,4.03
2023-01-27T07:03:57.785Z,4.22
2023-01-27T07:04:30.515Z,4.15
2023-01-27T07:05:24.102Z,4.14
2023-01-27T07:06:16.228Z,4.21
2023-01-27T07:07:07.356Z,4.15
2023-01-27T07:07:40.299Z,4.18
2023-01-27T07:08:13.989Z,4.15
2023-01-27T07:09:05.493Z,4.07
2023-01-27T07:09:56.800Z,4.19
2023-01-27T07:10:29.473Z,4.16
2023-01-27T07:10:42.300Z,4.20
2023-01-27T07:11:14.909Z,4.17
2023-01-27T07:11:47.561Z,4.15
2023-01-27T07:12:20.085Z,4.23
2023-01-27T07:12:52.666Z,4.21
2023-01-27T07:13:25.701Z,4.17
2023-01-27T07:13:58.284Z,4.20
2023-01-27T07:14:49.030Z,4.29
2023-01-27T07:15:21.570Z,4.23
2023-01-27T07:16:12.445Z,4.18
2023-01-27T07:16:45.372Z,4.21
2023-01-27T07:17:17.889Z,4.24
2023-01-27T07:18:10.165Z,4.21
2023-01-27T07:18:42.689Z,4.19
2023-01-27T07:19:16.619Z,4.15
2023-01-27T07:20:09.861Z,4.19
2023-01-27T07:20:42.632Z,4.29
2023-01-27T07:21:15.449Z,4.26
2023-01-27T07:21:48.285Z,4.21
2023-01-27T07:22:21.359Z,4.24
2023-01-27T07:22:56.406Z,4.14
2023-01-27T07:23:29.152Z,4.15
2023-01-27T07:24:05.427Z,4.14
2023-01-27T07:24:38.141Z,4.17
2023-01-27T07:25:10.881Z,4.22
2023-01-27T07:26:05.727Z,4.22
2023-01-27T07:26:54.203Z,4.17
2023-01-27T07:27:26.939Z,4.23
2023-01-27T07:28:18.611Z,4.25
2023-01-27T07:28:51.356Z,4.19
2023-01-27T07:29:24.105Z,4.17
2023-01-27T07:29:58.428Z,4.16
2023-01-27T07:30:31.654Z,4.18
2023-01-27T07:31:04.490Z,4.24
2023-01-27T07:31:37.201Z,4.28
2023-01-27T07:32:29.416Z,4.36
2023-01-27T07:32:42.433Z,4.26
2023-01-27T07:33:15.747Z,4.25
2023-01-27T07:33:48.535Z,4.27
2023-01-27T07:34:21.269Z,4.27
2023-01-27T07:34:54.603Z,4.24
2023-01-27T07:35:27.385Z,4.27
2023-01-27T07:36:02.276Z,4.33
2023-01-27T07:36:36.260Z,4.36
2023-01-27T07:37:09.056Z,4.35
2023-01-27T07:37:42.239Z,4.34
2023-01-27T07:38:14.966Z,4.36
2023-01-27T07:38:51.488Z,4.38
2023-01-27T07:39:24.221Z,4.43
2023-01-27T07:39:56.977Z,4.43
2023-01-27T07:40:48.180Z,4.35
2023-01-27T07:41:40.115Z,4.37
2023-01-27T07:42:12.614Z,4.36
2023-01-27T07:42:45.010Z,4.35
2023-01-27T07:43:17.639Z,4.28
2023-01-27T07:44:10.413Z,4.31
2023-01-27T07:44:43.234Z,4.24
2023-01-27T07:45:16.008Z,4.24
2023-01-27T07:45:29.006Z,4.26
2023-01-27T07:46:01.722Z,4.32
2023-01-27T07:46:52.670Z,4.41
2023-01-27T07:47:25.439Z,4.30
2023-01-27T07:48:05.731Z,4.29
2023-01-27T07:48:38.470Z,4.26
2023-01-27T07:49:29.334Z,4.35
2023-01-27T07:50:21.800Z,4.28
2023-01-27T07:50:54.527Z,4.34
2023-01-27T07:51:27.321Z,4.33
2023-01-27T07:52:00.072Z,4.41
2023-01-27T07:52:32.651Z,4.44
2023-01-27T07:53:05.463Z,4.37
2023-01-27T07:53:37.975Z,4.33
2023-01-27T07:54:10.555Z,4.47
2023-01-27T07:54:43.299Z,4.38
2023-01-27T07:55:16.049Z,4.37
2023-01-27T07:55:50.837Z,4.35
2023-01-27T07:56:23.602Z,4.41
2023-01-27T07:56:59.262Z,4.39
2023-01-27T07:57:32.710Z,4.41
2023-01-27T07:58:05.598Z,4.40
2023-01-27T07:58:57.008Z,4.30
2023-01-27T07:59:29.849Z,4.37
2023-01-27T08:00:05.801Z,4.37
2023-01-27T08:00:38.377Z,4.31
2023-01-27T08:01:11.736Z,4.38
2023-01-27T08:01:45.252Z,4.38
2023-01-27T08:02:35.975Z,4.38
2023-01-27T08:03:13.370Z,4.40
2023-01-27T08:03:45.878Z,4.34
2023-01-27T08:04:18.755Z,4.38
2023-01-27T08:04:53.498Z,4.40
2023-01-27T08:05:24.013Z,4.51
2023-01-27T08:05:56.757Z,4.47
2023-01-27T08:06:29.529Z,4.48
2023-01-27T08:07:02.598Z,4.39
2023-01-27T08:07:35.512Z,4.37
2023-01-27T08:08:08.046Z,4.39
2023-01-27T08:08:40.678Z,4.39
2023-01-27T08:09:31.967Z,4.48
2023-01-27T08:10:04.642Z,4.35
2023-01-27T08:10:37.190Z,4.31
2023-01-27T08:11:12.202Z,4.32
2023-01-27T08:11:45.014Z,4.28
2023-01-27T08:12:17.586Z,4.29
2023-01-27T08:12:30.787Z,4.32
2023-01-27T08:13:05.392Z,4.36
2023-01-27T08:13:38.091Z,4.45
2023-01-27T08:14:10.717Z,4.47
2023-01-27T08:14:43.472Z,4.44
2023-01-27T08:15:18.869Z,4.47
2023-01-27T08:15:49.067Z,4.53
2023-01-27T08:16:21.680Z,4.43
2023-01-27T08:16:54.278Z,4.40
2023-01-27T08:17:26.803Z,4.46
2023-01-27T08:17:59.333Z,4.47
2023-01-27T08:18:33.412Z,4.48
2023-01-27T08:19:24.713Z,4.51
2023-01-27T08:19:57.991Z,4.44
2023-01-27T08:20:30.811Z,4.44
2023-01-27T08:21:04.141Z,4.47
2023-01-27T08:21:36.696Z,4.42
2023-01-27T08:22:09.458Z,4.52
2023-01-27T08:22:42.335Z,4.44
2023-01-27T08:23:15.178Z,4.44
2023-01-27T08:23:47.732Z,4.41
2023-01-27T08:24:20.343Z,4.35
2023-01-27T08:24:52.811Z,4.38
2023-01-27T08:25:25.809Z,4.36
2023-01-27T08:25:59.462Z,4.35
2023-01-27T08:26:32.009Z,4.36
2023-01-27T08:27:08.204Z,4.37
2023-01-27T08:27:38.617Z,4.29
2023-01-27T08:28:11.201Z,4.31
2023-01-27T08:28:45.570Z,4.37
2023-01-27T08:29:18.331Z,4.40
2023-01-27T08:29:51.095Z,4.43
2023-01-27T08:30:43.337Z,4.43